Time;durP1;ratioP1;P1;durP2;ratioP2;P2;SDS_P1;SDS_P2;PMS_P1;PMS_P2;Temp;Humidity;BMP_temperature;BMP_pressure;BME280_temperature;BME280_humidity;BME280_pressure;Samples;Min_cycle;Max_cycle;Signal;HPM_P1;HPM_P2
2024/01/17 00:01:59;;;;;;;14.63;7.18;;;;;;;-1.28;78.68;99982.16;3609389;39;20051;-63
2024/01/17 00:04:27;;;;;;;15.48;8.15;;;;;;;-1.28;77.47;99981.31;3609002;39;20063;-63
2024/01/17 00:06:56;;;;;;;12.50;7.32;;;;;;;-1.33;77.13;99973.53;3609609;39;20104;-63
2024/01/17 00:09:23;;;;;;;11.73;7.47;;;;;;;-1.34;78.51;99977.06;3608458;39;20059;-63
2024/01/17 00:11:50;;;;;;;14.30;8.07;;;;;;;-1.37;78.65;99973.66;3608885;39;20070;-63
2024/01/17 00:14:16;;;;;;;12.70;7.70;;;;;;;-1.36;78.62;99975.38;3606942;39;20464;-63
2024/01/17 00:16:41;;;;;;;13.05;7.70;;;;;;;-1.46;78.36;99957.19;3607483;39;20047;-63
2024/01/17 00:19:07;;;;;;;18.40;7.88;;;;;;;-1.42;78.20;99957.97;3610567;39;20123;-63
2024/01/17 00:21:32;;;;;;;18.10;7.85;;;;;;;-1.45;78.23;99953.63;3609434;39;20086;-63
2024/01/17 00:23:58;;;;;;;14.10;7.85;;;;;;;-1.48;79.22;99942.31;3609687;39;20082;-63
2024/01/17 00:26:24;;;;;;;15.30;8.82;;;;;;;-1.48;78.96;99934.41;3609867;39;20047;-63
2024/01/17 00:28:50;;;;;;;12.98;8.75;;;;;;;-1.48;78.79;99934.41;3611734;39;20310;-63
2024/01/17 00:31:15;;;;;;;12.52;8.20;;;;;;;-1.48;79.37;99929.16;3612348;39;20054;-62
2024/01/17 00:33:41;;;;;;;13.52;8.80;;;;;;;-1.71;78.88;99887.63;3611287;39;20066;-63
2024/01/17 00:36:08;;;;;;;14.13;8.23;;;;;;;-1.52;78.47;99917.81;3612206;39;20390;-62
2024/01/17 00:38:34;;;;;;;11.98;8.15;;;;;;;-1.74;78.80;99878.00;3611056;39;20464;-63
2024/01/17 00:41:00;;;;;;;14.55;7.35;;;;;;;-1.56;78.81;99910.88;3607147;39;20055;-63
2024/01/17 00:43:26;;;;;;;15.13;8.20;;;;;;;-1.57;78.89;99900.41;3610680;39;20058;-63
2024/01/17 00:45:51;;;;;;;14.02;7.82;;;;;;;-1.60;79.31;99895.22;3611555;39;20058;-63
2024/01/17 00:48:18;;;;;;;13.23;7.90;;;;;;;-1.64;78.64;99886.53;3611217;39;20284;-63
2024/01/17 00:50:44;;;;;;;14.52;7.82;;;;;;;-1.61;79.57;99889.09;3609553;39;20073;-63
2024/01/17 00:53:10;;;;;;;11.43;7.15;;;;;;;-1.61;79.44;99890.84;3611376;39;20291;-62
2024/01/17 00:55:35;;;;;;;10.77;6.85;;;;;;;-1.53;78.73;99886.22;3611597;39;20047;-63
2024/01/17 00:58:01;;;;;;;11.50;7.28;;;;;;;-1.56;78.48;99875.78;3610526;39;20043;-63
2024/01/17 01:00:26;;;;;;;10.00;7.63;;;;;;;-1.61;78.87;99862.75;3611665;39;20079;-63
2024/01/17 01:02:52;;;;;;;12.68;6.75;;;;;;;-1.82;79.13;99816.75;3611848;39;20054;-63
2024/01/17 01:05:17;;;;;;;11.43;7.85;;;;;;;-1.60;78.30;99855.69;3610526;39;20135;-63
2024/01/17 01:07:44;;;;;;;14.40;7.63;;;;;;;-1.57;79.25;99853.84;3611551;39;20407;-63
2024/01/17 01:10:10;;;;;;;9.60;6.55;;;;;;;-1.57;78.26;99852.97;3610337;39;20058;-62
2024/01/17 01:12:37;;;;;;;14.18;7.43;;;;;;;-1.56;78.98;99849.41;3611218;39;20058;-62
2024/01/17 01:15:04;;;;;;;9.93;7.03;;;;;;;-1.56;77.59;99854.69;3611774;39;20063;-63
2024/01/17 01:17:30;;;;;;;11.95;7.15;;;;;;;-1.55;78.69;99853.81;3611438;39;20063;-63
2024/01/17 01:19:56;;;;;;;11.85;6.93;;;;;;;-1.55;78.10;99851.16;3610614;39;20051;-63
2024/01/17 01:22:22;;;;;;;10.60;6.78;;;;;;;-1.56;78.49;99844.16;3607876;39;20087;-63
2024/01/17 01:24:48;;;;;;;10.65;6.90;;;;;;;-1.57;77.63;99842.44;3612565;39;20344;-63
2024/01/17 01:27:14;;;;;;;13.73;7.70;;;;;;;-1.58;77.84;99835.44;3611218;39;20047;-62
2024/01/17 01:29:40;;;;;;;12.60;6.85;;;;;;;-1.57;78.23;99832.75;3612011;39;20054;-63
2024/01/17 01:32:07;;;;;;;11.95;6.65;;;;;;;-1.61;78.58;99825.00;3611563;39;20066;-63
2024/01/17 01:34:33;;;;;;;13.57;7.07;;;;;;;-1.58;77.81;99830.19;3610993;39;20055;-63
2024/01/17 01:37:00;;;;;;;13.77;7.22;;;;;;;-1.58;77.46;99827.53;3610676;39;20418;-63
2024/01/17 01:39:26;;;;;;;11.05;6.90;;;;;;;-1.59;78.02;99834.56;3609479;39;20331;-63
2024/01/17 01:41:52;;;;;;;15.30;7.25;;;;;;;-1.58;78.14;99825.75;3612259;39;20058;-64
2024/01/17 01:44:18;;;;;;;10.48;6.68;;;;;;;-1.59;78.26;99824.00;3611535;39;20383;-63
2024/01/17 01:46:47;;;;;;;12.25;7.18;;;;;;;-1.55;77.45;99817.78;3611556;39;20059;-63
2024/01/17 01:49:17;;;;;;;10.88;6.63;;;;;;;-1.70;77.70;99795.34;3610812;39;20296;-62
2024/01/17 01:51:46;;;;;;;10.93;7.05;;;;;;;-1.57;77.30;99826.63;3609355;39;20051;-63
2024/01/17 01:54:16;;;;;;;14.90;7.30;;;;;;;-1.56;78.58;99829.19;3610737;39;20062;-62
2024/01/17 01:56:44;;;;;;;11.32;6.70;;;;;;;-1.56;78.00;99818.66;3612838;39;20047;-63
2024/01/17 01:59:11;;;;;;;12.45;7.05;;;;;;;-1.56;78.07;99817.78;3610902;39;20094;-63
2024/01/17 02:01:38;;;;;;;14.55;7.40;;;;;;;-1.56;77.78;99809.88;3611878;39;20059;-63
2024/01/17 02:04:05;;;;;;;9.18;6.45;;;;;;;-1.55;78.07;99816.91;3612429;39;20050;-62
2024/01/17 02:06:34;;;;;;;11.00;6.93;;;;;;;-1.58;78.09;99809.09;3602850;39;20063;-63
2024/01/17 02:09:01;;;;;;;9.95;7.00;;;;;;;-1.53;78.00;99801.91;3611291;39;20103;-63
2024/01/17 02:11:31;;;;;;;14.93;7.10;;;;;;;-1.52;77.59;99801.88;3609810;39;20047;-62
2024/01/17 02:13:58;;;;;;;11.20;7.15;;;;;;;-1.50;77.86;99804.44;3611955;39;20039;-63
2024/01/17 02:16:24;;;;;;;12.50;6.72;;;;;;;-1.53;77.68;99796.63;3611351;39;20038;-63
2024/01/17 02:18:51;;;;;;;9.18;6.47;;;;;;;-1.53;78.16;99786.09;3612124;39;20046;-63
2024/01/17 02:21:17;;;;;;;11.15;6.63;;;;;;;-1.53;78.25;99792.22;3610309;39;20057;-63
2024/01/17 02:23:43;;;;;;;10.23;7.10;;;;;;;-1.56;77.19;99780.91;3610724;39;20347;-63
2024/01/17 02:26:09;;;;;;;8.93;6.47;;;;;;;-1.55;77.03;99782.66;3611619;39;20051;-63
2024/01/17 02:28:35;;;;;;;14.30;6.53;;;;;;;-1.54;77.41;99765.94;3610599;39;20066;-63
2024/01/17 02:31:03;;;;;;;15.30;7.00;;;;;;;-1.54;78.01;99772.06;3611200;39;20119;-63
2024/01/17 02:33:29;;;;;;;12.48;7.00;;;;;;;-1.72;77.53;99728.66;3608072;39;20074;-63
2024/01/17 02:35:55;;;;;;;15.25;7.57;;;;;;;-1.54;76.95;99752.75;3610656;39;20102;-63
2024/01/17 02:38:20;;;;;;;13.13;7.03;;;;;;;-1.55;77.27;99749.25;3610092;39;20414;-63
2024/01/17 02:40:46;;;;;;;12.38;7.00;;;;;;;-1.58;77.06;99741.44;3610560;39;20073;-64
2024/01/17 02:43:12;;;;;;;10.48;6.68;;;;;;;-1.60;77.68;99734.50;3610335;39;20054;-63
2024/01/17 02:45:37;;;;;;;11.75;7.40;;;;;;;-1.60;77.30;99716.91;3609769;39;20435;-63
2024/01/17 02:48:03;;;;;;;8.95;6.35;;;;;;;-1.58;77.88;99730.03;3611846;39;20051;-63
2024/01/17 02:50:30;;;;;;;14.77;6.78;;;;;;;-1.63;77.37;99717.84;3609140;39;20051;-64
2024/01/17 02:52:55;;;;;;;12.60;6.40;;;;;;;-1.68;77.05;99709.25;3610356;39;20111;-64
2024/01/17 02:55:23;;;;;;;14.65;6.70;;;;;;;-1.64;77.55;99716.13;3608452;39;20046;-63
2024/01/17 02:57:52;;;;;;;11.15;6.75;;;;;;;-1.65;77.43;99708.25;3601432;39;20476;-63
2024/01/17 03:00:18;;;;;;;13.38;6.82;;;;;;;-1.65;77.45;99692.44;3610314;39;20391;-62
2024/01/17 03:02:44;;;;;;;11.02;6.93;;;;;;;-1.62;77.18;99692.34;3607556;39;20066;-63
2024/01/17 03:05:10;;;;;;;12.60;6.68;;;;;;;-1.61;77.54;99690.63;3610986;39;20307;-63
2024/01/17 03:07:36;;;;;;;11.23;6.50;;;;;;;-1.59;77.22;99686.13;3609144;39;20083;-62
2024/01/17 03:10:01;;;;;;;12.07;6.85;;;;;;;-1.59;77.32;99689.63;3609889;39;20087;-63
2024/01/17 03:12:27;;;;;;;10.43;6.85;;;;;;;-1.57;77.59;99689.59;3609699;39;20114;-63
2024/01/17 03:14:53;;;;;;;9.40;6.20;;;;;;;-1.62;77.03;99681.81;3608200;39;20066;-63
2024/01/17 03:17:18;;;;;;;11.57;6.95;;;;;;;-1.58;76.45;99693.16;3610460;39;20379;-63
2024/01/17 03:19:46;;;;;;;10.82;6.57;;;;;;;-1.60;76.25;99692.34;3610286;39;20556;-63
2024/01/17 03:22:14;;;;;;;12.05;6.60;;;;;;;-1.61;76.79;99687.97;3611112;39;20070;-63
2024/01/17 03:24:40;;;;;;;11.63;7.68;;;;;;;-1.62;77.15;99687.09;3599818;39;20314;-63
2024/01/17 03:27:06;;;;;;;13.68;6.95;;;;;;;-1.69;77.63;99672.38;3611120;39;20061;-63
2024/01/17 03:29:31;;;;;;;12.35;7.00;;;;;;;-1.72;76.45;99665.44;3609186;39;20121;-63
2024/01/17 03:31:57;;;;;;;10.93;7.10;;;;;;;-1.68;76.83;99674.09;3610904;39;20128;-63
2024/01/17 03:34:23;;;;;;;10.63;6.53;;;;;;;-1.71;76.84;99672.44;3608012;39;20375;-63
2024/01/17 03:36:49;;;;;;;12.85;6.50;;;;;;;-1.72;77.00;99654.03;3611209;39;20446;-63
2024/01/17 03:39:14;;;;;;;12.98;6.90;;;;;;;-1.83;77.29;99630.66;3602082;39;20063;-63
2024/01/17 03:41:40;;;;;;;12.05;6.38;;;;;;;-1.76;77.92;99636.63;3610912;39;20090;-63
2024/01/17 03:44:06;;;;;;;11.27;6.70;;;;;;;-1.79;77.27;99626.16;3609784;39;20129;-63
2024/01/17 03:46:31;;;;;;;10.43;6.70;;;;;;;-1.80;78.38;99617.41;3607374;39;20086;-63
2024/01/17 03:48:57;;;;;;;9.43;6.50;;;;;;;-1.76;77.96;99615.53;3610939;39;20090;-63
2024/01/17 03:51:22;;;;;;;9.07;6.18;;;;;;;-1.83;77.99;99585.91;3608614;39;20054;-63
2024/01/17 03:53:48;;;;;;;9.98;6.18;;;;;;;-1.76;78.12;99590.06;3600464;39;20058;-63
2024/01/17 03:56:15;;;;;;;10.70;6.75;;;;;;;-1.74;77.16;99588.25;3609234;39;20054;-63
2024/01/17 03:58:41;;;;;;;8.48;6.18;;;;;;;-1.70;76.90;99584.59;3607874;39;20047;-63
2024/01/17 04:01:10;;;;;;;11.60;6.88;;;;;;;-1.71;76.95;99568.84;3609328;39;20050;-63
2024/01/17 04:03:35;;;;;;;12.30;6.68;;;;;;;-1.75;77.26;99561.94;3608904;39;20073;-63
2024/01/17 04:06:01;;;;;;;10.85;6.30;;;;;;;-1.74;76.94;99561.91;3610756;39;20047;-63
2024/01/17 04:08:26;;;;;;;11.90;6.60;;;;;;;-1.70;77.85;99560.88;3610756;39;20065;-63
2024/01/17 04:10:52;;;;;;;10.80;6.53;;;;;;;-1.69;78.07;99552.06;3611802;39;20051;-63
2024/01/17 04:13:17;;;;;;;15.38;6.68;;;;;;;-1.68;77.57;99545.91;3608892;39;20058;-63
2024/01/17 04:15:43;;;;;;;12.55;7.00;;;;;;;-1.66;78.23;99538.78;3609619;39;20043;-63
2024/01/17 04:18:09;;;;;;;9.52;5.90;;;;;;;-1.71;76.83;99516.16;3609534;39;20047;-63
2024/01/17 04:20:34;;;;;;;10.90;6.20;;;;;;;-1.64;76.89;99523.81;3606206;39;20426;-63
2024/01/17 04:23:04;;;;;;;8.95;5.68;;;;;;;-1.63;77.74;99516.75;3609566;39;20131;-63
2024/01/17 04:25:30;;;;;;;9.45;6.07;;;;;;;-1.60;77.43;99516.66;3604857;39;20051;-63
2024/01/17 04:27:55;;;;;;;8.43;6.07;;;;;;;-1.57;76.88;99510.44;3606973;39;20128;-62
2024/01/17 04:30:21;;;;;;;13.73;6.32;;;;;;;-1.57;77.19;99516.56;3607597;39;20153;-63
2024/01/17 04:32:47;;;;;;;11.20;5.90;;;;;;;-1.81;76.56;99459.41;3607852;39;20063;-62
2024/01/17 04:35:12;;;;;;;11.20;6.22;;;;;;;-1.53;76.51;99486.53;3609438;39;20050;-63
2024/01/17 04:37:39;;;;;;;11.65;6.20;;;;;;;-1.52;77.14;99479.50;3601389;39;20054;-63
2024/01/17 04:40:07;;;;;;;19.20;11.43;;;;;;;-1.52;76.10;99472.47;3608815;39;20046;-62
2024/01/17 04:42:33;;;;;;;14.60;9.25;;;;;;;-1.53;76.66;99472.53;3607563;39;20391;-63
2024/01/17 04:44:59;;;;;;;11.95;6.25;;;;;;;-1.54;76.57;99468.16;3608129;39;20115;-63
2024/01/17 04:47:24;;;;;;;12.25;6.03;;;;;;;-1.54;76.74;99473.44;3609454;39;20051;-62
2024/01/17 04:49:50;;;;;;;9.70;6.22;;;;;;;-1.52;76.54;99468.97;3609178;39;20058;-63
2024/01/17 04:52:18;;;;;;;9.77;6.13;;;;;;;-1.51;76.26;99462.78;3608730;39;20059;-62
2024/01/17 04:54:43;;;;;;;8.77;5.85;;;;;;;-1.50;76.21;99448.69;3607146;39;21356;-63
2024/01/17 04:57:09;;;;;;;8.13;5.40;;;;;;;-1.53;76.39;99440.91;3609991;39;20046;-63
2024/01/17 04:59:36;;;;;;;12.30;5.80;;;;;;;-1.52;76.26;99430.31;3607553;39;20070;-63
2024/01/17 05:02:02;;;;;;;11.70;6.05;;;;;;;-1.51;75.91;99428.53;3598992;39;20376;-63
2024/01/17 05:04:28;;;;;;;10.73;6.22;;;;;;;-1.50;76.73;99432.88;3609149;39;20062;-63
2024/01/17 05:06:53;;;;;;;9.70;5.75;;;;;;;-1.50;76.37;99428.47;3609487;39;20062;-63
2024/01/17 05:09:19;;;;;;;8.63;5.93;;;;;;;-1.47;76.15;99416.97;3610259;39;20058;-63
2024/01/17 05:11:46;;;;;;;11.43;6.18;;;;;;;-1.49;75.14;99421.41;3610743;39;20058;-63
2024/01/17 05:14:16;;;;;;;11.18;5.85;;;;;;;-1.48;75.38;99415.25;3600872;39;20116;-63
2024/01/17 05:16:42;;;;;;;10.05;6.13;;;;;;;-1.72;76.14;99377.44;3611603;39;20058;-63
2024/01/17 05:19:08;;;;;;;10.57;6.28;;;;;;;-2.06;75.70;99317.19;3612131;39;20066;-63
2024/01/17 05:21:34;;;;;;;12.02;6.38;;;;;;;-1.54;75.32;99400.53;3609013;39;20151;-63
2024/01/17 05:24:00;;;;;;;11.82;6.13;;;;;;;-1.49;75.64;99397.72;3597202;39;20505;-63
2024/01/17 05:26:25;;;;;;;10.77;6.05;;;;;;;-1.46;75.66;99397.59;3606715;39;20322;-63
2024/01/17 05:28:51;;;;;;;10.85;6.53;;;;;;;-1.49;74.93;99390.69;3608023;39;20059;-63
2024/01/17 05:31:17;;;;;;;10.38;6.88;;;;;;;-1.46;75.93;99387.06;3609868;39;20067;-63
2024/01/17 05:33:44;;;;;;;12.68;6.85;;;;;;;-1.49;76.20;99376.63;3607894;39;20054;-62
2024/01/17 05:36:11;;;;;;;11.48;6.28;;;;;;;-1.49;77.04;99377.50;3606927;39;20431;-63
2024/01/17 05:38:37;;;;;;;12.23;6.57;;;;;;;-1.64;76.21;99351.72;3596648;39;20374;-63
2024/01/17 05:41:03;;;;;;;11.70;6.50;;;;;;;-1.51;76.00;99368.78;3606642;39;20129;-63
2024/01/17 05:43:30;;;;;;;10.98;6.32;;;;;;;-1.48;76.84;99368.69;3607582;39;20067;-63
2024/01/17 05:45:57;;;;;;;10.80;6.30;;;;;;;-1.47;77.01;99361.63;3611137;39;20051;-62
2024/01/17 05:48:25;;;;;;;10.52;6.00;;;;;;;-1.58;76.35;99346.22;3601321;39;20083;-63
2024/01/17 05:50:50;;;;;;;11.90;6.50;;;;;;;-1.70;75.83;99322.94;3597695;39;20051;-63
2024/01/17 05:53:16;;;;;;;11.38;6.70;;;;;;;-1.49;75.64;99366.97;3607750;39;20351;-64
2024/01/17 05:55:43;;;;;;;17.30;6.70;;;;;;;-1.52;75.56;99351.28;3606927;39;20061;-63
2024/01/17 05:58:09;;;;;;;13.73;7.15;;;;;;;-1.54;75.60;99339.91;3608784;39;20046;-63
2024/01/17 06:00:35;;;;;;;12.10;6.88;;;;;;;-1.53;75.62;99338.13;3608752;39;20302;-63
2024/01/17 06:03:01;;;;;;;10.98;6.65;;;;;;;-1.48;76.21;99346.75;3607713;39;20043;-63
2024/01/17 06:05:26;;;;;;;12.75;7.28;;;;;;;-1.46;75.20;99351.06;3607600;39;20057;-63
2024/01/17 06:07:52;;;;;;;9.63;6.72;;;;;;;-1.48;75.16;99352.88;3609387;39;20051;-63
2024/01/17 06:10:18;;;;;;;10.98;7.32;;;;;;;-1.49;75.66;99334.47;3607731;39;20055;-63
2024/01/17 06:12:44;;;;;;;13.18;6.80;;;;;;;-1.49;75.03;99329.19;3606713;39;20065;-63
2024/01/17 06:15:11;;;;;;;12.70;6.75;;;;;;;-1.50;75.48;99333.59;3607653;39;20074;-63
2024/01/17 06:17:37;;;;;;;12.65;7.50;;;;;;;-1.52;76.04;99324.03;3597497;39;20058;-62
2024/01/17 06:20:03;;;;;;;13.02;7.05;;;;;;;-1.55;75.09;99324.19;3610254;39;20044;-63
2024/01/17 06:22:29;;;;;;;10.77;6.80;;;;;;;-1.53;75.35;99317.91;3606144;39;20372;-62
2024/01/17 06:24:55;;;;;;;11.40;6.80;;;;;;;-1.48;75.11;99315.97;3605229;39;20050;-63
2024/01/17 06:27:22;;;;;;;13.70;7.72;;;;;;;-1.46;74.98;99314.16;3608493;39;20090;-62
2024/01/17 06:29:47;;;;;;;11.57;7.28;;;;;;;-1.48;74.56;99313.34;3608459;39;20462;-63
2024/01/17 06:32:13;;;;;;;13.65;7.45;;;;;;;-1.45;74.65;99301.84;3610554;39;20078;-62
2024/01/17 06:34:40;;;;;;;12.02;7.13;;;;;;;-1.47;74.87;99311.56;3608488;39;20355;-62
2024/01/17 06:37:06;;;;;;;12.18;6.82;;;;;;;-1.54;74.57;99294.28;3608981;39;20055;-63
2024/01/17 06:39:32;;;;;;;11.48;7.18;;;;;;;-1.52;74.80;99289.78;3607805;39;20107;-62
2024/01/17 06:41:59;;;;;;;12.90;7.35;;;;;;;-1.51;75.21;99289.75;3607148;39;20081;-63
2024/01/17 06:44:27;;;;;;;10.23;6.75;;;;;;;-1.49;74.59;99284.41;3599178;39;20073;-62
2024/01/17 06:46:53;;;;;;;11.68;7.30;;;;;;;-1.46;74.65;99281.66;3607562;39;20400;-63
2024/01/17 06:49:18;;;;;;;11.35;7.53;;;;;;;-1.45;75.02;99288.66;3611497;39;20147;-63
2024/01/17 06:51:45;;;;;;;13.90;8.00;;;;;;;-1.44;75.29;99285.09;3611002;39;20066;-63
2024/01/17 06:54:11;;;;;;;14.15;8.18;;;;;;;-1.45;74.14;99273.69;3609191;39;20076;-63
2024/01/17 06:56:37;;;;;;;12.32;7.97;;;;;;;-1.44;74.63;99270.13;3608493;39;20387;-64
2024/01/17 06:59:04;;;;;;;13.55;7.68;;;;;;;-1.41;75.35;99271.81;3608374;39;20047;-63
2024/01/17 07:01:29;;;;;;;11.50;7.00;;;;;;;-1.37;74.78;99270.75;3609263;39;20054;-63
2024/01/17 07:03:55;;;;;;;15.27;7.90;;;;;;;-1.32;74.85;99265.34;3609889;39;20406;-63
2024/01/17 07:06:21;;;;;;;12.98;7.55;;;;;;;-1.30;74.27;99261.72;3608289;39;20043;-63
2024/01/17 07:08:47;;;;;;;11.27;7.10;;;;;;;-1.28;73.72;99257.22;3606721;39;20086;-63
2024/01/17 07:11:13;;;;;;;10.73;6.90;;;;;;;-1.30;73.76;99242.38;3606955;39;21887;-63
2024/01/17 07:13:39;;;;;;;11.30;7.10;;;;;;;-1.29;74.04;99247.63;3606937;39;20460;-63
2024/01/17 07:16:05;;;;;;;11.48;7.57;;;;;;;-1.29;74.26;99229.16;3609196;39;20047;-63
2024/01/17 07:18:33;;;;;;;15.82;7.20;;;;;;;-1.28;73.35;99222.13;3606537;39;20060;-63
2024/01/17 07:21:03;;;;;;;10.57;6.80;;;;;;;-1.25;73.23;99222.00;3605498;39;20449;-64
2024/01/17 07:23:28;;;;;;;11.55;6.80;;;;;;;-1.24;72.78;99228.97;3606144;39;20056;-63
2024/01/17 07:25:54;;;;;;;11.10;6.93;;;;;;;-1.23;73.21;99221.03;3607780;39;20539;-63
2024/01/17 07:28:20;;;;;;;10.38;6.35;;;;;;;-1.21;73.28;99219.16;3607409;39;20051;-63
2024/01/17 07:30:45;;;;;;;8.55;6.55;;;;;;;-1.19;73.09;99217.34;3606278;39;20055;-63
2024/01/17 07:33:11;;;;;;;12.13;5.93;;;;;;;-1.16;72.44;99200.53;3608911;39;20042;-63
2024/01/17 07:35:36;;;;;;;13.75;6.90;;;;;;;-1.63;73.67;99127.72;3609012;39;20453;-63
2024/01/17 07:38:02;;;;;;;11.00;7.05;;;;;;;-1.15;73.80;99191.69;3607083;39;20065;-63
2024/01/17 07:40:28;;;;;;;9.65;5.95;;;;;;;-1.14;73.20;99184.66;3608634;39;20058;-63
2024/01/17 07:42:54;;;;;;;10.85;6.45;;;;;;;-1.14;73.33;99182.91;3605255;39;20074;-63
2024/01/17 07:45:21;;;;;;;10.50;6.65;;;;;;;-1.15;73.91;99170.59;3600034;39;20054;-63
2024/01/17 07:47:47;;;;;;;13.77;7.20;;;;;;;-1.11;72.50;99168.69;3609020;39;20059;-63
2024/01/17 07:50:13;;;;;;;7.95;6.40;;;;;;;-1.12;73.16;99157.31;3608447;39;20380;-63
2024/01/17 07:52:38;;;;;;;13.75;7.03;;;;;;;-1.27;73.12;99129.81;3598887;39;20063;-63
2024/01/17 07:55:05;;;;;;;10.73;6.13;;;;;;;-1.21;72.43;99126.91;3606726;39;20130;-63
2024/01/17 07:57:30;;;;;;;11.93;6.60;;;;;;;-1.06;72.71;99140.38;3608218;39;20090;-63
2024/01/17 07:59:56;;;;;;;9.75;6.40;;;;;;;-1.13;72.74;99118.69;3605446;39;20384;-64
2024/01/17 08:02:23;;;;;;;11.88;6.57;;;;;;;-1.03;73.32;99137.63;3610124;39;20069;-63
2024/01/17 08:04:52;;;;;;;13.48;6.97;;;;;;;-1.31;73.52;99091.31;3608339;39;20313;-63
2024/01/17 08:07:24;;;;;;;10.88;6.43;;;;;;;-0.98;73.73;99130.38;3601774;39;20039;-63
2024/01/17 08:09:52;;;;;;;12.07;6.72;;;;;;;-1.04;72.97;99109.53;3609837;39;20063;-63
2024/01/17 08:12:17;;;;;;;9.68;6.45;;;;;;;-0.93;73.02;99128.38;3608945;39;20062;-63
2024/01/17 08:14:43;;;;;;;13.23;7.13;;;;;;;-0.89;73.71;99119.41;3608899;39;20055;-63
2024/01/17 08:17:08;;;;;;;15.23;7.10;;;;;;;-0.87;73.57;99117.59;3606878;39;20050;-63
2024/01/17 08:19:34;;;;;;;9.32;6.47;;;;;;;-0.93;72.92;99113.41;3610070;39;20054;-63
2024/01/17 08:22:01;;;;;;;10.60;7.18;;;;;;;-0.78;73.05;99124.25;3608974;39;20402;-63
2024/01/17 08:24:27;;;;;;;8.50;6.10;;;;;;;-0.75;73.56;99122.34;3607938;39;20058;-63
2024/01/17 08:26:52;;;;;;;12.13;6.72;;;;;;;-0.73;73.20;99115.22;3609366;39;20067;-64
2024/01/17 08:29:18;;;;;;;11.65;7.55;;;;;;;-0.78;73.46;99098.72;3600310;39;20077;-63
2024/01/17 08:31:44;;;;;;;11.93;6.88;;;;;;;-0.71;73.17;99086.97;3604977;39;20119;-63
2024/01/17 08:34:11;;;;;;;16.23;7.00;;;;;;;-0.63;71.99;99094.56;3608447;39;20047;-63
2024/01/17 08:36:37;;;;;;;13.00;7.10;;;;;;;-0.65;72.87;99088.50;3599447;39;20046;-63
2024/01/17 08:39:05;;;;;;;11.50;6.93;;;;;;;-0.54;72.24;99093.28;3608573;39;20058;-64
2024/01/17 08:41:30;;;;;;;11.40;6.90;;;;;;;-0.50;71.87;99089.59;3608047;39;20077;-64
2024/01/17 08:43:56;;;;;;;10.88;6.45;;;;;;;-0.52;72.28;99072.97;3611474;39;20315;-63
2024/01/17 08:46:22;;;;;;;9.60;6.97;;;;;;;-0.44;71.84;99080.53;3611411;39;20031;-63
2024/01/17 08:48:47;;;;;;;11.75;7.43;;;;;;;-0.48;71.84;99078.06;3607357;39;20418;-63
2024/01/17 08:51:13;;;;;;;10.55;6.40;;;;;;;-0.40;70.50;99068.94;3609880;39;20047;-64
2024/01/17 08:53:39;;;;;;;10.30;6.80;;;;;;;-0.32;70.28;99059.75;3609018;39;20047;-63
2024/01/17 08:56:05;;;;;;;10.57;6.97;;;;;;;-0.39;69.47;99058.28;3608308;39;20392;-63
2024/01/17 08:58:34;;;;;;;11.25;6.93;;;;;;;-0.38;69.25;99057.38;3611980;39;20059;-63
2024/01/17 09:01:01;;;;;;;13.77;6.72;;;;;;;-0.33;70.40;99050.09;3610706;39;20047;-64
2024/01/17 09:03:29;;;;;;;10.48;7.03;;;;;;;-0.29;69.98;99048.16;3602040;39;20069;-64
2024/01/17 09:05:55;;;;;;;9.90;6.40;;;;;;;-0.30;69.09;99042.03;3610065;39;20047;-63
2024/01/17 09:08:20;;;;;;;10.82;7.18;;;;;;;-0.29;69.30;99035.81;3609728;39;20039;-63
2024/01/17 09:10:46;;;;;;;13.25;7.03;;;;;;;-0.25;67.81;99032.13;3606336;39;20070;-63
2024/01/17 09:13:13;;;;;;;9.82;6.97;;;;;;;-0.28;67.25;99031.41;3607529;39;20039;-64
2024/01/17 09:15:39;;;;;;;14.20;7.47;;;;;;;-0.26;68.56;99024.25;3611714;39;20035;-63
2024/01/17 09:18:05;;;;;;;11.00;7.40;;;;;;;-0.21;69.40;99027.56;3611311;39;20044;-64
2024/01/17 09:20:31;;;;;;;12.15;7.50;;;;;;;-0.17;69.63;99029.13;3612029;39;20053;-64
2024/01/17 09:22:57;;;;;;;13.07;7.50;;;;;;;-0.15;70.36;99026.41;3609249;39;20062;-64
2024/01/17 09:25:23;;;;;;;11.70;7.18;;;;;;;-0.20;70.94;99012.56;3610096;39;20057;-64
2024/01/17 09:27:49;;;;;;;12.80;7.82;;;;;;;-0.18;70.10;99016.00;3610894;39;20450;-63
2024/01/17 09:30:14;;;;;;;16.02;7.70;;;;;;;-0.16;71.04;99014.13;3608423;39;20055;-63
2024/01/17 09:32:41;;;;;;;11.98;7.43;;;;;;;-0.13;70.30;99013.97;3606601;39;20151;-63
2024/01/17 09:35:08;;;;;;;12.55;7.30;;;;;;;-0.13;69.85;99011.34;3612484;39;20088;-63
2024/01/17 09:37:36;;;;;;;11.68;7.13;;;;;;;-0.12;70.49;99003.34;3610235;39;20043;-64
2024/01/17 09:40:05;;;;;;;13.70;7.55;;;;;;;-0.11;69.73;99007.69;3611927;39;20043;-64
2024/01/17 09:42:32;;;;;;;12.15;7.25;;;;;;;-0.06;69.17;99018.06;3612668;39;20369;-63
2024/01/17 09:44:59;;;;;;;12.30;7.35;;;;;;;-0.05;69.46;99014.47;3608606;39;20077;-63
2024/01/17 09:47:27;;;;;;;10.80;7.07;;;;;;;-0.08;69.21;99007.56;3611020;39;20055;-64
2024/01/17 09:49:53;;;;;;;20.35;11.05;;;;;;;-0.01;70.40;99005.47;3607801;39;20047;-64
2024/01/17 09:52:22;;;;;;;14.48;8.48;;;;;;;-0.02;69.30;98998.50;3608724;39;20048;-64
2024/01/17 09:54:52;;;;;;;12.13;7.80;;;;;;;-0.03;70.67;98994.16;3610036;39;20050;-63
2024/01/17 09:57:26;;;;;;;13.77;8.00;;;;;;;-0.07;69.72;98977.56;3610800;39;20059;-64
2024/01/17 10:00:07;;;;;;;10.98;7.28;;;;;;;0.00;69.69;98988.72;3609748;39;20552;-63
2024/01/17 10:02:40;;;;;;;10.57;7.57;;;;;;;-0.05;69.90;98972.22;3608960;39;20085;-63
2024/01/17 10:05:09;;;;;;;11.70;7.63;;;;;;;0.03;69.94;98977.97;3608991;39;20391;-63
2024/01/17 10:07:38;;;;;;;12.00;7.50;;;;;;;0.02;69.90;98978.91;3606283;39;20063;-64
2024/01/17 10:10:04;;;;;;;13.73;7.28;;;;;;;-0.05;69.53;98965.16;3607934;39;20059;-63
2024/01/17 10:12:30;;;;;;;13.48;7.78;;;;;;;0.01;68.29;98971.09;3609886;39;20047;-64
2024/01/17 10:14:56;;;;;;;9.43;7.10;;;;;;;-0.02;69.13;98975.56;3608512;39;20563;-63
2024/01/17 10:17:21;;;;;;;10.23;7.60;;;;;;;0.04;68.61;98974.44;3610000;39;20089;-63
2024/01/17 10:19:47;;;;;;;11.98;7.50;;;;;;;0.10;68.70;98974.13;3605519;39;20050;-63
2024/01/17 10:22:13;;;;;;;13.07;8.32;;;;;;;0.14;69.24;98980.13;3610097;39;20078;-63
2024/01/17 10:24:39;;;;;;;12.68;8.35;;;;;;;0.18;68.33;98976.38;3608426;39;20063;-63
2024/01/17 10:27:06;;;;;;;13.93;8.48;;;;;;;0.26;69.51;98968.09;3602513;39;20047;-63
2024/01/17 10:29:37;;;;;;;14.95;7.97;;;;;;;0.26;67.91;98962.81;3611445;39;20151;-63
2024/01/17 10:32:03;;;;;;;16.17;9.23;;;;;;;0.16;68.77;98941.25;3610623;39;20281;-63
2024/01/17 10:34:29;;;;;;;14.20;8.02;;;;;;;0.37;68.55;98963.13;3598527;39;20055;-64
2024/01/17 10:36:55;;;;;;;14.65;8.20;;;;;;;0.42;69.39;98958.47;3608484;39;20092;-64
2024/01/17 10:39:23;;;;;;;14.40;8.80;;;;;;;0.39;69.36;98954.19;3609117;39;20099;-64
2024/01/17 10:41:54;;;;;;;15.30;9.07;;;;;;;0.28;68.80;98916.84;3611666;39;20054;-64
2024/01/17 10:44:25;;;;;;;14.80;9.65;;;;;;;0.45;67.76;98934.53;3609825;39;20070;-63
2024/01/17 10:46:52;;;;;;;13.50;9.50;;;;;;;0.42;67.43;98938.16;3609311;39;20050;-63
2024/01/17 10:49:22;;;;;;;16.77;9.70;;;;;;;0.40;68.58;98933.88;3611799;39;20054;-64
2024/01/17 10:52:05;;;;;;;14.65;10.50;;;;;;;0.44;68.05;98930.16;3609610;39;20146;-64
2024/01/17 10:54:46;;;;;;;16.23;10.02;;;;;;;0.43;69.03;98923.16;3612194;39;20122;-64
2024/01/17 10:57:15;;;;;;;15.50;9.60;;;;;;;0.45;68.60;98919.50;3610063;39;20143;-64
2024/01/17 10:59:51;;;;;;;14.93;9.57;;;;;;;0.49;68.24;98922.84;3609093;39;20304;-64
2024/01/17 11:02:22;;;;;;;15.27;9.50;;;;;;;0.52;67.98;98917.41;3608184;39;20070;-64
2024/01/17 11:05:07;;;;;;;17.08;9.98;;;;;;;0.59;68.20;98913.50;3608477;39;20055;-64
2024/01/17 11:07:35;;;;;;;13.13;9.20;;;;;;;0.53;67.62;98911.16;3607043;39;20360;-65
2024/01/17 11:10:05;;;;;;;15.45;9.55;;;;;;;0.56;66.41;98908.38;3608491;39;20055;-64
2024/01/17 11:12:33;;;;;;;13.75;9.70;;;;;;;0.60;67.11;98896.72;3609991;39;20326;-64
2024/01/17 11:15:04;;;;;;;15.35;9.10;;;;;;;0.66;66.77;98903.47;3610642;39;21185;-64
2024/01/17 11:17:36;;;;;;;15.02;9.57;;;;;;;0.67;67.81;98900.75;3612319;39;20065;-64
2024/01/17 11:20:10;;;;;;;14.32;9.50;;;;;;;0.67;66.86;98895.47;3607700;39;20744;-64
2024/01/17 11:22:38;;;;;;;15.07;9.90;;;;;;;0.67;67.17;98890.19;3607043;39;20372;-64
2024/01/17 11:25:10;;;;;;;15.70;9.85;;;;;;;0.72;66.88;98881.13;3609600;39;20079;-64